UA-0038 weather

Kiev Chaika
Kiev, Kiev, Ukraine

Public forecast

Using degrees Celsius for public forecast. Weather courtesy of forecast.io.

Closest aviation weather report (METAR) to Kiev Chaika

Closest report is Kiev Zhuliany International Airport, 6.1 nm (11.3 km) ESE. Retrieved 2019/11/22 12:30 UTC (0 seconds ago):

UKKK 221230Z 11006MPS 070V130 CAVOK M04/M15 Q1035 R08/190060 NOSIG

Closest aviation forecast (TAF) to Kiev Chaika

Closest forecast is Kiev Zhuliany International Airport, 6.1 nm (11.3 km) ESE. Retrieved 2019/11/22 12:18 UTC (10 minutes ago):

TAF TAF UKKK 221102Z 2212/2312 11005G12MPS CAVOK TXM03/2312Z TNM08/2305Z